Time;durP1;ratioP1;P1;durP2;ratioP2;P2;SDS_P1;SDS_P2;PMS_P1;PMS_P2;Temp;Humidity;BMP_temperature;BMP_pressure;BME280_temperature;BME280_humidity;BME280_pressure;Samples;Min_cycle;Max_cycle;Signal;HPM_P1;HPM_P2
2022/03/22 00:01:51;;;;;;;38.25;13.52;;;6.30;46.80;;;;;;5072941;27;20452;-75
2022/03/22 00:04:18;;;;;;;36.30;13.77;;;6.20;46.80;;;;;;5097048;27;20035;-74
2022/03/22 00:06:45;;;;;;;31.13;12.02;;;6.20;46.50;;;;;;5092810;27;20107;-74
2022/03/22 00:09:12;;;;;;;32.63;13.75;;;6.20;46.50;;;;;;5080209;27;20099;-74
2022/03/22 00:11:39;;;;;;;45.25;12.65;;;6.10;46.60;;;;;;5094530;27;20875;-74
2022/03/22 00:14:08;;;;;;;35.97;13.45;;;6.00;46.90;;;;;;5082409;27;20486;-74
2022/03/22 00:16:36;;;;;;;30.35;12.85;;;5.90;47.40;;;;;;5099307;27;20063;-74
2022/03/22 00:19:23;;;;;;;32.92;14.07;;;5.90;47.60;;;;;;5100426;27;20151;-74
2022/03/22 00:21:50;;;;;;;32.65;13.70;;;6.00;47.00;;;;;;5111564;27;20104;-74
2022/03/22 00:24:17;;;;;;;37.15;13.25;;;5.90;47.40;;;;;;5111491;27;20048;-74
2022/03/22 00:26:44;;;;;;;29.98;12.10;;;5.80;48.00;;;;;;5115389;27;20031;-74
2022/03/22 00:29:11;;;;;;;31.35;13.00;;;5.80;47.20;;;;;;5095008;27;20047;-74
2022/03/22 00:31:39;;;;;;;35.33;14.85;;;5.70;47.70;;;;;;5095822;28;20059;-74
2022/03/22 00:34:07;;;;;;;33.85;12.23;;;5.70;47.70;;;;;;5112772;27;22257;-74
2022/03/22 00:36:34;;;;;;;35.65;13.45;;;5.70;47.80;;;;;;5111474;27;20051;-74
2022/03/22 00:39:02;;;;;;;34.75;13.48;;;5.90;47.40;;;;;;5094766;27;20474;-76
2022/03/22 00:41:29;;;;;;;34.55;13.73;;;5.70;48.00;;;;;;5107016;27;20043;-74
2022/03/22 00:43:57;;;;;;;31.83;13.20;;;5.80;48.10;;;;;;5090999;28;20130;-75
2022/03/22 00:46:24;;;;;;;33.17;12.65;;;5.70;48.10;;;;;;5094374;28;20689;-75
2022/03/22 00:48:51;;;;;;;31.10;12.38;;;5.70;47.80;;;;;;5092345;28;20040;-75
2022/03/22 00:51:20;;;;;;;33.58;12.73;;;5.70;47.80;;;;;;5093235;28;20730;-75
2022/03/22 00:53:47;;;;;;;27.95;12.40;;;5.70;48.30;;;;;;5089516;28;20135;-75
2022/03/22 00:56:14;;;;;;;27.05;11.40;;;5.50;48.30;;;;;;5094630;28;20646;-75
2022/03/22 00:58:42;;;;;;;36.40;12.75;;;5.70;48.30;;;;;;5093567;28;20044;-75
2022/03/22 01:01:09;;;;;;;33.83;12.43;;;5.60;48.30;;;;;;5092095;28;20503;-75
2022/03/22 01:03:36;;;;;;;36.63;12.20;;;5.50;48.20;;;;;;5095200;28;20054;-75
2022/03/22 01:06:04;;;;;;;32.05;12.05;;;5.50;48.50;;;;;;5075219;28;20129;-75
2022/03/22 01:08:31;;;;;;;30.33;12.18;;;5.50;48.40;;;;;;5077287;28;20072;-75
2022/03/22 01:10:58;;;;;;;37.97;13.80;;;5.50;48.50;;;;;;5092431;28;20046;-75
2022/03/22 01:13:27;;;;;;;31.20;12.02;;;5.30;48.70;;;;;;5097017;28;20040;-75
2022/03/22 01:15:54;;;;;;;31.95;12.70;;;5.30;48.60;;;;;;5095206;28;20047;-75
2022/03/22 01:18:23;;;;;;;35.30;12.65;;;5.30;49.00;;;;;;5098429;28;20047;-75
2022/03/22 01:20:51;;;;;;;34.30;12.07;;;5.30;49.20;;;;;;5098547;28;20402;-73
2022/03/22 01:23:19;;;;;;;28.63;12.27;;;5.20;49.40;;;;;;5079801;28;20391;-73
2022/03/22 01:25:48;;;;;;;32.40;12.13;;;5.30;48.50;;;;;;5094983;28;20402;-73
2022/03/22 01:28:16;;;;;;;29.50;11.80;;;5.40;48.40;;;;;;5094518;28;20051;-73
2022/03/22 01:30:43;;;;;;;37.60;12.27;;;5.50;48.40;;;;;;5099495;28;20143;-73
2022/03/22 01:33:12;;;;;;;30.00;12.02;;;5.30;48.40;;;;;;5097216;28;20114;-73
2022/03/22 01:35:40;;;;;;;30.27;11.88;;;5.30;48.80;;;;;;5092638;28;20039;-73
2022/03/22 01:38:07;;;;;;;31.65;12.00;;;5.20;48.80;;;;;;5091872;28;21027;-73
2022/03/22 01:40:35;;;;;;;25.65;11.45;;;5.00;49.40;;;;;;5095043;28;20137;-73
2022/03/22 01:43:04;;;;;;;35.55;12.60;;;5.00;49.50;;;;;;5070713;28;20056;-73
2022/03/22 01:45:31;;;;;;;22.60;11.65;;;5.00;49.40;;;;;;5073992;28;20036;-74
2022/03/22 01:48:01;;;;;;;31.63;12.15;;;4.90;49.80;;;;;;5074881;28;20040;-73
2022/03/22 01:50:29;;;;;;;33.70;12.95;;;5.10;49.40;;;;;;5071161;28;22692;-75
2022/03/22 01:52:58;;;;;;;33.25;12.02;;;5.20;49.60;;;;;;5075765;28;20059;-74
2022/03/22 01:55:25;;;;;;;32.40;12.77;;;5.10;49.20;;;;;;5073028;28;20114;-74
2022/03/22 01:57:54;;;;;;;35.13;13.68;;;5.00;49.50;;;;;;5074115;28;20782;-75
2022/03/22 02:00:24;;;;;;;25.83;11.30;;;5.10;49.80;;;;;;5074315;28;20138;-74
2022/03/22 02:08:16;;;;;;;22.38;10.25;;;4.90;49.90;;;;;;5074080;28;20097;-74
2022/03/22 02:10:45;;;;;;;25.52;11.63;;;5.00;49.80;;;;;;5074207;28;20044;-76
2022/03/22 02:13:13;;;;;;;32.60;11.07;;;5.10;49.80;;;;;;5079724;28;20826;-76
2022/03/22 02:15:40;;;;;;;30.33;11.90;;;5.00;50.00;;;;;;5073864;28;20044;-76
2022/03/22 02:18:09;;;;;;;26.13;10.85;;;5.10;50.00;;;;;;5058513;28;20040;-76
2022/03/22 02:20:36;;;;;;;23.75;9.60;;;5.20;49.80;;;;;;5061198;28;20068;-76
2022/03/22 02:23:17;;;;;;;28.75;10.77;;;5.20;49.50;;;;;;5072265;28;20044;-75
2022/03/22 02:25:44;;;;;;;32.13;11.77;;;5.20;49.70;;;;;;5078450;28;20036;-76
2022/03/22 02:28:11;;;;;;;28.80;9.77;;;5.00;50.10;;;;;;5077188;28;20040;-76
2022/03/22 02:30:39;;;;;;;22.52;9.70;;;4.90;50.90;;;;;;5058538;28;20048;-76
2022/03/22 02:33:06;;;;;;;27.90;10.20;;;4.90;50.90;;;;;;5075444;28;20058;-77
2022/03/22 02:35:33;;;;;;;24.67;9.73;;;4.60;51.00;;;;;;5073881;28;20167;-77
2022/03/22 02:38:01;;;;;;;23.95;9.85;;;4.70;51.10;;;;;;5095463;27;20498;-77
2022/03/22 02:40:29;;;;;;;23.00;9.32;;;4.60;51.50;;;;;;5057016;28;20048;-78
2022/03/22 02:43:00;;;;;;;28.88;10.00;;;4.70;51.20;;;;;;5089165;27;20524;-78
2022/03/22 02:45:28;;;;;;;34.08;10.70;;;4.60;51.40;;;;;;5100726;28;21885;-79
2022/03/22 02:47:55;;;;;;;24.85;9.90;;;4.70;51.70;;;;;;5099421;28;20035;-79
2022/03/22 02:50:22;;;;;;;24.90;10.75;;;4.70;52.00;;;;;;5108485;27;20040;-79
2022/03/22 02:52:49;;;;;;;24.63;10.38;;;4.40;52.40;;;;;;5082572;28;20141;-78
2022/03/22 02:55:16;;;;;;;31.48;10.00;;;4.30;52.70;;;;;;5079167;28;20066;-80
2022/03/22 02:57:43;;;;;;;25.88;9.75;;;4.50;52.10;;;;;;5080883;28;20051;-80
2022/03/22 03:00:12;;;;;;;22.63;10.20;;;4.60;51.90;;;;;;5099170;28;20040;-79
2022/03/22 03:02:41;;;;;;;25.08;10.50;;;4.40;52.60;;;;;;5101884;27;20105;-79
2022/03/22 03:05:09;;;;;;;25.55;10.40;;;4.40;52.80;;;;;;5098175;28;22295;-79
2022/03/22 03:07:36;;;;;;;23.80;9.82;;;4.30;52.50;;;;;;5093515;28;20043;-79
2022/03/22 03:10:06;;;;;;;30.13;10.32;;;4.40;52.30;;;;;;5093803;27;20062;-79
2022/03/22 03:12:34;;;;;;;26.92;11.02;;;4.40;52.50;;;;;;5096299;28;20044;-79
2022/03/22 03:15:02;;;;;;;22.05;9.77;;;4.40;52.70;;;;;;5098483;28;20097;-78
2022/03/22 03:17:29;;;;;;;29.60;10.48;;;4.30;52.60;;;;;;5094768;28;20047;-78
2022/03/22 03:19:56;;;;;;;21.65;9.23;;;4.50;52.20;;;;;;5080763;28;20134;-79
2022/03/22 03:22:24;;;;;;;24.98;9.68;;;4.40;52.60;;;;;;5096844;28;20040;-78
2022/03/22 03:24:51;;;;;;;28.45;10.25;;;4.50;52.50;;;;;;5092046;28;20198;-74
2022/03/22 03:27:18;;;;;;;27.08;11.02;;;4.50;52.20;;;;;;5093560;27;20912;-75
2022/03/22 03:29:46;;;;;;;28.42;10.50;;;4.50;52.40;;;;;;5094784;28;20040;-75
2022/03/22 03:32:13;;;;;;;28.73;11.48;;;4.30;53.00;;;;;;5078800;28;20643;-75
2022/03/22 03:34:40;;;;;;;25.73;9.90;;;4.30;53.40;;;;;;5099273;28;20100;-75
2022/03/22 03:37:08;;;;;;;31.23;10.23;;;4.30;53.10;;;;;;5094273;28;20044;-75
2022/03/22 03:39:38;;;;;;;20.88;8.77;;;4.20;53.30;;;;;;5076220;28;20067;-75
2022/03/22 03:42:06;;;;;;;29.35;10.35;;;4.30;53.50;;;;;;5095859;27;20565;-74
2022/03/22 03:47:25;;;;;;;25.50;9.63;;;4.00;53.80;;;;;;5112766;27;20100;-74
2022/03/22 03:49:58;;;;;;;31.33;10.88;;;4.20;53.30;;;;;;5116967;27;20032;-74
2022/03/22 03:52:27;;;;;;;27.15;9.95;;;4.10;53.30;;;;;;5097222;27;20047;-74
2022/03/22 03:54:54;;;;;;;22.55;8.45;;;4.20;52.90;;;;;;5113636;27;20039;-75
2022/03/22 03:57:22;;;;;;;28.55;10.00;;;4.20;52.40;;;;;;5083564;27;20039;-74
2022/03/22 04:01:10;;;;;;;23.67;8.48;;;4.30;52.00;;;;;;5099548;27;20042;-74
2022/03/22 04:03:39;;;;;;;21.90;7.43;;;4.40;51.90;;;;;;5112771;27;20834;-73
2022/03/22 04:06:06;;;;;;;19.70;8.77;;;4.40;52.00;;;;;;5095527;27;20043;-74
2022/03/22 04:08:34;;;;;;;25.65;9.73;;;4.40;51.60;;;;;;5116398;27;20051;-74
2022/03/22 04:11:01;;;;;;;23.20;9.65;;;4.10;52.40;;;;;;5096514;27;20047;-74
2022/03/22 04:13:28;;;;;;;23.67;8.77;;;3.80;53.70;;;;;;5093954;27;20055;-74
2022/03/22 04:15:55;;;;;;;23.40;8.55;;;4.00;53.30;;;;;;5111245;27;20104;-73
2022/03/22 04:18:22;;;;;;;29.27;8.88;;;4.20;52.80;;;;;;5113452;27;20043;-73
2022/03/22 04:20:49;;;;;;;21.10;8.13;;;4.30;52.20;;;;;;5111575;27;20093;-74
2022/03/22 04:23:16;;;;;;;22.73;8.35;;;4.30;51.70;;;;;;5113445;27;20035;-74
2022/03/22 04:25:43;;;;;;;18.90;8.55;;;4.20;51.80;;;;;;5096001;27;20036;-75
2022/03/22 04:33:41;;;;;;;22.83;8.02;;;4.50;51.80;;;;;;5099117;28;20624;-75
2022/03/22 04:36:12;;;;;;;22.90;8.23;;;4.50;51.40;;;;;;5097879;27;20522;-75
2022/03/22 04:38:39;;;;;;;22.80;7.93;;;4.30;52.10;;;;;;5116399;27;20054;-75
2022/03/22 04:41:08;;;;;;;22.25;8.52;;;4.30;51.80;;;;;;5096674;27;20136;-75
2022/03/22 04:43:35;;;;;;;22.95;8.73;;;4.20;51.80;;;;;;5099207;28;20073;-77
2022/03/22 04:46:02;;;;;;;20.98;7.88;;;4.30;52.70;;;;;;5111430;28;20034;-76
2022/03/22 04:48:29;;;;;;;19.45;8.10;;;4.20;52.40;;;;;;5112973;28;20027;-76
2022/03/22 04:56:49;;;;;;;16.60;7.97;;;4.10;52.60;;;;;;5114370;28;20067;-78
2022/03/22 04:59:22;;;;;;;20.52;7.93;;;4.10;52.80;;;;;;5098646;28;20479;-78
2022/03/22 05:01:50;;;;;;;23.98;9.05;;;4.10;52.70;;;;;;5082015;28;20047;-78
2022/03/22 05:04:17;;;;;;;26.98;9.50;;;4.00;53.10;;;;;;5095876;28;22356;-78
2022/03/22 05:06:45;;;;;;;19.90;8.55;;;3.90;53.50;;;;;;5084300;28;20047;-78
2022/03/22 05:09:13;;;;;;;25.60;8.77;;;4.10;53.30;;;;;;5080306;28;21012;-78
2022/03/22 05:11:40;;;;;;;23.30;8.50;;;4.10;53.00;;;;;;5100888;28;20092;-78
2022/03/22 05:14:08;;;;;;;19.75;8.50;;;4.10;53.10;;;;;;5079728;28;20057;-78
2022/03/22 05:16:35;;;;;;;23.85;9.63;;;4.00;53.70;;;;;;5098049;28;20096;-78
2022/03/22 05:19:06;;;;;;;21.58;9.10;;;4.00;53.80;;;;;;5095473;28;20053;-78
2022/03/22 05:21:33;;;;;;;24.42;8.38;;;4.00;53.60;;;;;;5079836;28;20047;-78
2022/03/22 05:24:00;;;;;;;32.45;10.65;;;4.10;53.80;;;;;;5099667;28;20105;-78
2022/03/22 05:26:27;;;;;;;25.08;9.88;;;4.10;53.60;;;;;;5088037;28;20043;-78
2022/03/22 05:28:54;;;;;;;27.25;10.40;;;4.30;53.10;;;;;;5097691;28;20035;-78
2022/03/22 05:31:21;;;;;;;29.52;10.00;;;4.30;53.00;;;;;;5083814;28;20059;-78
2022/03/22 05:33:49;;;;;;;27.38;10.07;;;4.10;54.00;;;;;;5099964;28;20515;-78
2022/03/22 05:36:17;;;;;;;26.80;10.27;;;4.30;53.60;;;;;;5099500;28;20040;-78
2022/03/22 05:38:44;;;;;;;29.05;10.95;;;4.40;53.30;;;;;;5090307;28;20047;-78
2022/03/22 05:41:11;;;;;;;28.77;10.18;;;4.30;53.30;;;;;;5084631;28;20043;-77
2022/03/22 05:43:39;;;;;;;29.83;11.30;;;4.40;52.90;;;;;;5112798;28;20047;-77
2022/03/22 05:46:06;;;;;;;24.08;10.27;;;4.50;53.30;;;;;;5096831;28;20506;-77
2022/03/22 05:48:33;;;;;;;29.88;10.40;;;4.60;52.40;;;;;;5078340;28;20039;-78
2022/03/22 05:51:00;;;;;;;22.75;9.25;;;4.70;51.90;;;;;;5103145;28;20168;-77
2022/03/22 05:53:27;;;;;;;24.30;8.88;;;4.90;51.30;;;;;;5082603;28;20052;-77
2022/03/22 05:55:54;;;;;;;20.88;9.25;;;5.00;51.40;;;;;;5111337;28;20031;-77
2022/03/22 05:58:21;;;;;;;23.00;9.38;;;5.20;50.60;;;;;;5084433;28;20112;-74
2022/03/22 06:00:48;;;;;;;21.92;9.82;;;5.20;50.60;;;;;;5088120;27;20167;-74
2022/03/22 06:03:16;;;;;;;30.38;11.40;;;5.40;50.10;;;;;;5083870;27;20115;-74
2022/03/22 06:05:43;;;;;;;23.05;10.93;;;5.70;49.90;;;;;;5096748;27;20048;-74
2022/03/22 06:08:10;;;;;;;24.30;9.75;;;5.60;50.10;;;;;;5116103;27;20138;-74
2022/03/22 06:10:38;;;;;;;23.58;10.57;;;5.70;50.30;;;;;;5110747;27;20047;-73
2022/03/22 06:13:05;;;;;;;22.08;9.70;;;5.80;49.60;;;;;;5116951;27;20535;-74
2022/03/22 06:15:33;;;;;;;23.75;9.35;;;6.00;50.20;;;;;;5082799;27;20063;-73
2022/03/22 06:18:01;;;;;;;24.88;9.80;;;6.20;48.90;;;;;;5100494;27;20055;-74
2022/03/22 06:20:32;;;;;;;20.08;8.88;;;6.30;48.70;;;;;;5116100;27;20663;-76
2022/03/22 06:23:02;;;;;;;23.20;10.40;;;6.40;48.40;;;;;;5083375;27;20055;-77
2022/03/22 06:25:29;;;;;;;24.67;9.90;;;6.60;48.00;;;;;;5101016;27;20356;-77
2022/03/22 06:27:57;;;;;;;24.02;9.98;;;6.70;47.80;;;;;;5116336;27;20406;-78
2022/03/22 06:30:25;;;;;;;29.60;10.93;;;6.80;47.60;;;;;;5099626;27;20042;-77
2022/03/22 06:32:55;;;;;;;30.05;10.95;;;6.80;47.30;;;;;;5084511;27;20039;-77
2022/03/22 06:35:26;;;;;;;24.45;10.90;;;6.80;47.50;;;;;;5098501;27;20590;-77
2022/03/22 06:37:54;;;;;;;22.92;8.98;;;6.80;47.90;;;;;;5096966;27;20063;-76
2022/03/22 06:40:24;;;;;;;21.17;9.55;;;6.90;48.10;;;;;;5112673;27;20039;-76
2022/03/22 06:42:59;;;;;;;25.92;10.70;;;6.80;47.90;;;;;;5097340;27;20075;-76
2022/03/22 06:45:30;;;;;;;19.33;9.25;;;6.90;47.90;;;;;;5102574;27;20039;-77
2022/03/22 06:47:57;;;;;;;25.92;10.50;;;7.00;48.20;;;;;;5099671;27;20047;-77
2022/03/22 06:50:24;;;;;;;26.17;9.73;;;7.00;47.70;;;;;;5098132;27;20199;-77
2022/03/22 06:52:52;;;;;;;21.33;9.93;;;7.10;47.50;;;;;;5082366;27;20521;-79
2022/03/22 06:55:22;;;;;;;18.50;8.52;;;7.10;47.60;;;;;;5071503;27;20070;-79
2022/03/22 06:57:56;;;;;;;20.98;9.70;;;7.30;47.10;;;;;;5076834;27;20056;-77
2022/03/22 07:00:25;;;;;;;23.63;9.65;;;7.50;46.90;;;;;;5059605;27;20046;-77
2022/03/22 07:02:53;;;;;;;20.15;10.25;;;7.50;46.70;;;;;;5055161;27;20059;-80
2022/03/22 07:05:21;;;;;;;19.38;9.77;;;7.60;47.10;;;;;;5056420;27;20521;-79
2022/03/22 07:07:48;;;;;;;20.95;10.13;;;7.80;46.00;;;;;;5064610;27;20047;-79
2022/03/22 07:10:17;;;;;;;24.05;11.00;;;7.90;46.20;;;;;;5052676;27;20043;-78
2022/03/22 07:12:59;;;;;;;21.90;10.05;;;8.00;45.90;;;;;;5084403;27;20047;-78
2022/03/22 07:15:31;;;;;;;24.48;10.57;;;8.00;45.60;;;;;;5080221;27;20047;-77
2022/03/22 07:18:00;;;;;;;18.45;9.07;;;8.20;45.90;;;;;;5070260;27;20051;-77
2022/03/22 07:20:28;;;;;;;20.83;10.80;;;8.50;44.50;;;;;;5070642;27;20054;-77
2022/03/22 07:22:59;;;;;;;23.48;9.32;;;8.60;44.30;;;;;;5068395;27;20085;-78
2022/03/22 07:25:26;;;;;;;30.58;10.45;;;8.70;44.20;;;;;;5086980;27;22467;-78
2022/03/22 07:27:54;;;;;;;22.33;10.45;;;8.60;44.80;;;;;;5050991;27;20064;-78
2022/03/22 07:30:22;;;;;;;24.33;10.75;;;8.70;44.70;;;;;;5069676;27;20224;-77
2022/03/22 07:32:49;;;;;;;25.40;9.85;;;8.80;44.60;;;;;;5072950;27;20051;-76
2022/03/22 07:35:19;;;;;;;25.90;10.65;;;8.90;44.50;;;;;;5058298;27;22377;-77
2022/03/22 07:37:48;;;;;;;23.65;10.68;;;9.00;44.40;;;;;;5074449;27;20055;-77
2022/03/22 07:40:16;;;;;;;17.42;9.80;;;9.10;44.50;;;;;;5066587;27;21646;-75
2022/03/22 07:42:44;;;;;;;19.98;9.95;;;10.40;43.40;;;;;;5083257;27;20425;-75
2022/03/22 07:45:11;;;;;;;25.92;9.85;;;9.50;43.50;;;;;;5086238;27;20043;-75
2022/03/22 07:47:41;;;;;;;21.33;10.40;;;9.50;44.10;;;;;;5070210;27;20077;-76
2022/03/22 07:53:00;;;;;;;20.73;9.27;;;9.70;43.80;;;;;;5086717;27;20084;-78
2022/03/22 07:55:33;;;;;;;19.05;8.98;;;9.90;43.00;;;;;;5077975;27;20048;-77
2022/03/22 07:58:02;;;;;;;20.73;9.70;;;10.10;42.50;;;;;;5070337;27;20766;-78
2022/03/22 08:00:34;;;;;;;18.75;9.80;;;10.30;41.60;;;;;;5055971;27;20055;-78
2022/03/22 08:03:03;;;;;;;22.52;9.32;;;10.50;41.50;;;;;;5052072;27;20055;-77
2022/03/22 08:05:35;;;;;;;18.33;9.30;;;10.50;41.60;;;;;;5070751;27;20058;-77
2022/03/22 08:08:03;;;;;;;19.60;9.23;;;10.60;40.90;;;;;;5070813;27;20043;-77
2022/03/22 08:10:50;;;;;;;23.70;10.45;;;10.60;41.40;;;;;;5059024;27;22587;-76
2022/03/22 08:13:17;;;;;;;20.08;10.60;;;10.80;41.20;;;;;;5071533;27;20126;-75
2022/03/22 08:15:45;;;;;;;20.40;9.55;;;10.90;40.70;;;;;;5073701;27;20889;-75
2022/03/22 08:18:12;;;;;;;23.10;10.35;;;11.00;40.80;;;;;;5069702;27;20059;-75
2022/03/22 08:20:39;;;;;;;25.42;10.30;;;11.00;40.90;;;;;;5058195;27;20639;-75
2022/03/22 08:23:07;;;;;;;20.75;10.18;;;11.10;41.80;;;;;;5084826;27;20043;-75
2022/03/22 08:25:36;;;;;;;25.90;11.80;;;11.30;40.20;;;;;;5087465;27;20054;-76
2022/03/22 08:28:06;;;;;;;21.95;10.60;;;11.50;40.70;;;;;;5065195;27;20043;-76
2022/03/22 08:30:34;;;;;;;20.50;11.02;;;11.80;39.70;;;;;;5049818;28;20039;-78
2022/03/22 08:33:06;;;;;;;21.73;10.65;;;11.90;39.60;;;;;;5048290;28;20051;-78
2022/03/22 08:35:33;;;;;;;22.80;11.32;;;12.00;39.90;;;;;;5054116;28;20086;-78
2022/03/22 08:38:02;;;;;;;22.70;10.55;;;12.10;39.80;;;;;;5072861;28;20192;-78
2022/03/22 08:40:29;;;;;;;23.23;10.57;;;12.20;39.40;;;;;;5053502;28;20771;-78
2022/03/22 08:42:57;;;;;;;18.90;9.68;;;12.30;38.90;;;;;;5055346;28;20727;-78
2022/03/22 08:45:27;;;;;;;20.77;10.02;;;12.50;39.00;;;;;;5066768;28;20058;-77
2022/03/22 08:47:55;;;;;;;20.45;10.73;;;12.70;37.50;;;;;;5066426;28;22427;-78
2022/03/22 08:50:25;;;;;;;20.08;10.57;;;12.80;37.50;;;;;;5068351;28;20180;-78
2022/03/22 08:52:56;;;;;;;20.27;10.32;;;13.00;38.20;;;;;;5065772;28;20059;-78
2022/03/22 08:55:25;;;;;;;17.52;9.45;;;13.10;37.80;;;;;;5070676;28;20813;-78
2022/03/22 08:57:53;;;;;;;24.67;10.23;;;13.10;37.90;;;;;;5065631;27;20136;-78
2022/03/22 09:00:21;;;;;;;26.60;10.00;;;13.30;37.40;;;;;;5067413;28;20837;-78
2022/03/22 09:02:50;;;;;;;19.33;9.02;;;13.30;37.50;;;;;;5065809;28;20154;-77
2022/03/22 09:08:06;;;;;;;17.95;8.95;;;13.60;36.60;;;;;;5066561;28;20055;-78
2022/03/22 09:10:35;;;;;;;17.00;9.38;;;13.80;36.50;;;;;;5065486;28;22422;-78
2022/03/22 09:13:07;;;;;;;18.83;9.55;;;13.90;36.30;;;;;;5052237;28;20760;-78
2022/03/22 09:15:38;;;;;;;15.68;9.27;;;14.00;36.20;;;;;;5068750;28;20048;-78
2022/03/22 09:18:16;;;;;;;19.50;9.30;;;14.00;36.50;;;;;;5050534;28;20689;-76
2022/03/22 09:20:45;;;;;;;13.93;8.68;;;14.10;35.40;;;;;;5083619;28;20050;-75
2022/03/22 09:23:13;;;;;;;16.83;9.52;;;14.10;34.80;;;;;;5060274;28;20096;-75
2022/03/22 09:25:41;;;;;;;21.10;10.07;;;14.20;34.90;;;;;;5063567;28;20051;-74
2022/03/22 09:28:08;;;;;;;18.55;9.95;;;14.20;35.90;;;;;;5045381;28;20124;-75
2022/03/22 09:30:36;;;;;;;15.90;8.90;;;14.30;36.10;;;;;;5043804;28;20043;-74
2022/03/22 09:33:04;;;;;;;15.90;9.00;;;14.40;35.60;;;;;;5070988;27;20048;-74
2022/03/22 09:35:31;;;;;;;20.27;9.85;;;14.50;35.50;;;;;;5074909;27;20103;-75
2022/03/22 09:37:59;;;;;;;20.67;10.65;;;14.60;35.00;;;;;;5087794;27;20051;-75
2022/03/22 09:40:27;;;;;;;19.55;9.82;;;14.70;34.10;;;;;;5070278;27;20768;-75
2022/03/22 09:42:55;;;;;;;16.80;9.60;;;14.80;34.90;;;;;;5067650;27;20417;-75
2022/03/22 09:45:32;;;;;;;21.52;9.07;;;15.00;34.70;;;;;;5068480;27;20828;-75
2022/03/22 09:48:00;;;;;;;19.67;10.32;;;15.00;34.90;;;;;;5071516;27;20182;-76
2022/03/22 09:53:17;;;;;;;21.08;9.45;;;15.20;33.90;;;;;;5067150;27;20130;-78
2022/03/22 09:55:45;;;;;;;19.42;10.15;;;15.20;34.30;;;;;;5064318;27;20051;-79
2022/03/22 09:58:13;;;;;;;18.00;9.07;;;15.20;32.60;;;;;;5070847;27;21041;-79
2022/03/22 10:00:43;;;;;;;20.85;9.55;;;15.20;33.10;;;;;;5061230;27;20182;-75
2022/03/22 10:03:18;;;;;;;14.85;8.43;;;15.30;33.50;;;;;;5065347;27;22696;-74
2022/03/22 10:06:01;;;;;;;18.48;8.63;;;15.30;33.30;;;;;;5064683;27;20047;-74
2022/03/22 10:08:31;;;;;;;16.08;8.63;;;15.50;33.60;;;;;;5061512;27;20046;-75
2022/03/22 10:11:04;;;;;;;17.35;8.73;;;15.70;32.70;;;;;;5048847;27;20047;-75
2022/03/22 10:13:33;;;;;;;16.98;8.13;;;15.80;33.00;;;;;;5062585;27;20044;-75
2022/03/22 10:16:04;;;;;;;17.08;8.23;;;16.00;32.40;;;;;;5068247;27;20418;-77
2022/03/22 10:18:34;;;;;;;17.58;8.68;;;16.00;32.10;;;;;;5076111;27;20268;-79
2022/03/22 10:21:04;;;;;;;19.13;8.57;;;16.20;32.30;;;;;;5056104;27;20533;-75
2022/03/22 10:23:32;;;;;;;15.75;8.18;;;16.20;32.20;;;;;;5065352;27;20043;-75
2022/03/22 10:26:07;;;;;;;14.88;7.88;;;16.20;31.30;;;;;;5065760;27;21948;-76
2022/03/22 10:28:35;;;;;;;14.88;7.47;;;16.20;31.90;;;;;;5079512;27;20050;-75
2022/03/22 10:31:03;;;;;;;13.48;6.50;;;16.30;32.20;;;;;;5063951;27;20047;-75
2022/03/22 10:33:30;;;;;;;12.75;7.57;;;16.40;31.40;;;;;;5082076;27;20047;-75
2022/03/22 10:35:57;;;;;;;15.93;6.88;;;16.60;31.80;;;;;;5064314;27;22527;-75
2022/03/22 10:38:24;;;;;;;15.82;7.80;;;16.70;31.70;;;;;;5061274;27;20077;-75
2022/03/22 10:40:52;;;;;;;14.50;7.45;;;16.60;30.50;;;;;;5052601;27;20052;-75
2022/03/22 10:43:22;;;;;;;16.35;8.35;;;16.70;31.10;;;;;;5078452;27;20181;-75
2022/03/22 10:46:09;;;;;;;16.58;7.57;;;16.80;31.30;;;;;;5049430;27;20107;-75
2022/03/22 10:48:39;;;;;;;11.80;6.72;;;16.80;31.00;;;;;;5061486;27;20043;-75
2022/03/22 10:51:06;;;;;;;15.15;6.68;;;16.90;30.70;;;;;;5063320;27;21306;-75
2022/03/22 10:53:35;;;;;;;16.80;6.78;;;17.00;30.60;;;;;;5067190;27;20054;-75
2022/03/22 10:56:04;;;;;;;12.25;7.45;;;17.10;30.50;;;;;;5056015;27;21295;-75
2022/03/22 10:58:34;;;;;;;12.15;6.97;;;17.00;30.00;;;;;;5062411;27;20051;-75
2022/03/22 11:01:03;;;;;;;16.33;7.85;;;17.10;30.10;;;;;;5063958;27;20059;-74
2022/03/22 11:03:33;;;;;;;13.27;7.28;;;;;;;;;;5064313;27;20778;-75
2022/03/22 11:06:03;;;;;;;16.23;7.35;;;17.30;29.80;;;;;;5072421;27;22675;-75
2022/03/22 11:08:31;;;;;;;14.55;7.40;;;17.30;30.20;;;;;;5063806;27;20041;-74
2022/03/22 11:10:58;;;;;;;10.38;6.38;;;17.40;29.80;;;;;;5058279;27;20043;-74
2022/03/22 11:13:26;;;;;;;11.38;6.55;;;17.40;29.80;;;;;;5060953;27;20686;-74
2022/03/22 11:15:55;;;;;;;13.40;7.03;;;17.40;29.80;;;;;;5059401;27;20138;-74
2022/03/22 11:18:25;;;;;;;15.55;8.15;;;17.50;29.80;;;;;;5049236;27;20139;-74
2022/03/22 11:20:57;;;;;;;18.38;7.05;;;17.50;30.00;;;;;;5074149;27;22511;-74
2022/03/22 11:23:27;;;;;;;13.80;7.82;;;17.60;30.00;;;;;;5058111;27;20051;-74
2022/03/22 11:25:55;;;;;;;13.45;7.10;;;17.70;29.50;;;;;;5062113;27;20048;-74
2022/03/22 11:28:23;;;;;;;9.80;6.15;;;17.70;28.80;;;;;;5042021;27;20042;-74
2022/03/22 11:30:53;;;;;;;13.45;6.72;;;17.80;29.90;;;;;;5060069;27;20059;-74
2022/03/22 11:36:21;;;;;;;12.68;6.68;;;17.90;29.30;;;;;;5072115;27;20051;-74
2022/03/22 11:38:54;;;;;;;14.90;7.53;;;18.00;29.70;;;;;;5071508;27;20079;-74
2022/03/22 11:44:27;;;;;;;10.88;6.32;;;18.10;29.90;;;;;;5074262;27;20056;-74
2022/03/22 11:47:03;;;;;;;14.75;6.25;;;18.10;29.20;;;;;;5059995;27;22340;-75
2022/03/22 11:49:31;;;;;;;11.25;5.63;;;18.00;28.90;;;;;;5058321;27;20054;-74
2022/03/22 11:52:11;;;;;;;13.52;5.90;;;18.00;29.80;;;;;;5077230;27;20170;-74
2022/03/22 11:54:38;;;;;;;12.45;6.03;;;18.20;29.70;;;;;;5073231;27;20047;-74
2022/03/22 11:57:07;;;;;;;12.68;6.80;;;18.20;30.40;;;;;;5058726;27;22819;-75
2022/03/22 11:59:43;;;;;;;14.68;6.80;;;18.40;30.00;;;;;;5074071;27;20172;-74
2022/03/22 12:02:16;;;;;;;12.20;5.75;;;18.50;30.00;;;;;;5058588;27;20074;-73
2022/03/22 12:04:55;;;;;;;11.45;5.97;;;18.50;28.80;;;;;;5057426;27;20047;-74
2022/03/22 12:07:32;;;;;;;12.38;6.28;;;18.50;29.50;;;;;;5059571;27;20063;-74
2022/03/22 12:10:06;;;;;;;12.13;5.03;;;18.60;29.20;;;;;;5059732;27;20043;-76
2022/03/22 12:13:23;;;;;;;10.93;6.32;;;18.70;29.20;;;;;;5063195;27;20084;-75
2022/03/22 12:15:30;;;;;;;16.35;6.35;;;18.70;29.20;;;;;;5051784;27;20055;-74
2022/03/22 12:17:57;;;;;;;10.95;5.75;;;18.80;28.80;;;;;;5050632;27;20047;-73
2022/03/22 12:20:25;;;;;;;9.15;5.68;;;18.80;29.00;;;;;;5070751;27;20052;-73
2022/03/22 12:22:59;;;;;;;16.38;6.43;;;18.90;29.40;;;;;;5069653;27;20083;-73
2022/03/22 12:25:35;;;;;;;10.80;5.55;;;18.90;29.40;;;;;;5076926;27;20035;-74
2022/03/22 12:28:09;;;;;;;12.13;6.28;;;18.90;29.30;;;;;;5056897;27;20130;-74
2022/03/22 12:30:41;;;;;;;13.10;6.13;;;19.00;29.50;;;;;;5076073;27;22426;-74
2022/03/22 12:33:14;;;;;;;10.10;5.63;;;19.20;29.70;;;;;;5054938;27;22571;-74
2022/03/22 12:35:44;;;;;;;11.45;6.43;;;19.10;29.60;;;;;;5038929;27;20039;-74
2022/03/22 12:38:11;;;;;;;13.52;6.13;;;19.20;29.40;;;;;;5069368;27;20078;-74
2022/03/22 12:40:42;;;;;;;12.15;5.85;;;19.20;29.40;;;;;;5050909;28;20047;-74
2022/03/22 12:43:12;;;;;;;25.23;8.25;;;19.10;29.30;;;;;;5039290;27;20142;-75
2022/03/22 12:45:47;;;;;;;13.75;5.03;;;19.10;29.10;;;;;;5047764;28;22450;-74
2022/03/22 12:48:19;;;;;;;14.68;6.13;;;19.20;29.20;;;;;;5069837;27;20078;-72
2022/03/22 12:50:49;;;;;;;12.95;6.82;;;19.20;29.30;;;;;;5070778;28;20478;-72
2022/03/22 12:53:17;;;;;;;15.45;6.78;;;19.10;29.40;;;;;;5067662;28;20078;-73
2022/03/22 12:55:44;;;;;;;14.20;6.60;;;19.10;28.70;;;;;;5070099;28;20079;-74
2022/03/22 12:58:11;;;;;;;12.85;7.15;;;19.00;29.00;;;;;;5055997;28;20058;-73
2022/03/22 13:00:40;;;;;;;12.38;6.00;;;18.90;29.30;;;;;;5066804;28;20047;-72
2022/03/22 13:03:11;;;;;;;14.48;6.50;;;19.00;29.00;;;;;;5052851;28;20058;-73
2022/03/22 13:05:47;;;;;;;11.07;6.32;;;19.00;29.30;;;;;;5036362;28;20031;-74
2022/03/22 13:08:16;;;;;;;11.02;5.88;;;19.00;29.40;;;;;;5059133;27;20074;-74
2022/03/22 13:15:01;;;;;;;11.95;5.95;;;19.10;29.80;;;;;;5064004;27;20138;-75
2022/03/22 13:16:25;;;;;;;12.35;6.18;;;19.20;28.90;;;;;;5077951;27;20066;-75
2022/03/22 13:18:54;;;;;;;16.40;7.40;;;19.20;29.60;;;;;;5051802;27;20139;-74
2022/03/22 13:21:26;;;;;;;9.73;5.78;;;19.20;29.30;;;;;;5049520;27;20061;-74
2022/03/22 13:24:17;;;;;;;12.38;5.82;;;19.30;28.80;;;;;;5075009;27;20136;-74
2022/03/22 13:27:03;;;;;;;11.48;5.68;;;19.30;29.30;;;;;;5058481;27;20044;-74